Terminal Aerodrome Forecast
Issued by NWS Upton, NY

Home | Current Version | Previous Version | Text Only | Print | Product List | Glossary On
Versions: 1 2 3 4 5 6 7 8 9 10 11 12 13 14 15 16 17 18 19 20 21 22 23 24 25 26 27 28 29 30 31 32 33 34 35 36 37 38 39 40 41 42 43
000
FTUS41 KOKX 301721
TAFJFK
TAF
KJFK 301721Z 3018/0124 12011G20KT P6SM BKN045
     FM302300 12012KT P6SM VCSH SCT015 OVC025
     FM010100 12008KT P6SM FEW008 OVC015
     FM010300 13007KT 5SM BR FEW003 OVC006
     FM010600 13005KT 1 1/2SM -DZ BR OVC004
     FM010900 VRB04KT 1/2SM -DZ FG OVC003
     FM011300 19010KT 4SM BR BKN020
     FM011800 19016KT P6SM BKN030=

USA.gov is the U.S. government's official web portal to all federal, state and local government web resources and services.